createdAt,value
2019-02-17T00:00:21.449Z,26.57
2019-02-17T00:02:52.083Z,27.00
2019-02-17T00:05:22.565Z,26.67
2019-02-17T00:07:53.044Z,26.87
2019-02-17T00:10:23.570Z,29.63
2019-02-17T00:12:54.114Z,30.03
2019-02-17T00:15:24.578Z,30.43
2019-02-17T00:17:55.103Z,31.10
2019-02-17T00:20:25.572Z,31.33
2019-02-17T00:22:56.087Z,32.90
2019-02-17T00:25:26.549Z,33.30
2019-02-17T00:27:57.092Z,31.93
2019-02-17T00:30:27.558Z,33.13
2019-02-17T00:32:58.021Z,35.03
2019-02-17T00:35:28.521Z,36.73
2019-02-17T00:37:59.050Z,35.40
2019-02-17T00:40:29.521Z,34.23
2019-02-17T00:43:00.030Z,35.03
2019-02-17T00:45:30.548Z,34.03
2019-02-17T00:48:01.018Z,35.03
2019-02-17T00:50:31.582Z,34.87
2019-02-17T00:53:02.102Z,32.27
2019-02-17T00:55:32.570Z,34.17
2019-02-17T00:58:03.036Z,30.77
2019-02-17T01:00:33.526Z,29.77
2019-02-17T01:03:04.098Z,30.00
2019-02-17T01:05:34.616Z,28.13
2019-02-17T01:08:05.213Z,30.23
2019-02-17T01:10:35.729Z,28.40
2019-02-17T01:13:06.265Z,27.47
2019-02-17T01:15:36.802Z,26.33
2019-02-17T01:18:07.278Z,25.80
2019-02-17T01:20:37.804Z,24.03
2019-02-17T01:23:08.374Z,25.10
2019-02-17T01:25:38.828Z,24.80
2019-02-17T01:28:09.342Z,24.60
2019-02-17T01:30:39.842Z,24.17
2019-02-17T01:33:10.361Z,24.17
2019-02-17T01:35:40.901Z,23.83
2019-02-17T01:38:11.363Z,24.23
2019-02-17T01:40:41.827Z,21.83
2019-02-17T01:43:12.356Z,20.30
2019-02-17T01:45:42.834Z,19.43
2019-02-17T01:48:13.344Z,23.90
2019-02-17T01:50:43.810Z,23.77
2019-02-17T01:53:14.438Z,24.60
2019-02-17T01:55:46.967Z,23.90
2019-02-17T01:58:17.121Z,23.77
2019-02-17T02:00:47.711Z,24.27
2019-02-17T02:03:18.249Z,25.10
2019-02-17T02:05:48.722Z,25.27
2019-02-17T02:08:19.229Z,26.00
2019-02-17T02:10:49.693Z,26.60
2019-02-17T02:13:20.205Z,25.40
2019-02-17T02:15:50.717Z,26.53
2019-02-17T02:18:21.235Z,26.30
2019-02-17T02:20:51.697Z,28.10
2019-02-17T02:23:22.219Z,27.97
2019-02-17T02:25:52.854Z,26.93
2019-02-17T02:28:23.327Z,27.20
2019-02-17T02:30:53.793Z,27.93
2019-02-17T02:33:24.304Z,27.97
2019-02-17T02:35:54.826Z,27.77
2019-02-17T02:38:25.341Z,27.33
2019-02-17T02:40:55.866Z,27.63
2019-02-17T02:43:26.339Z,27.47
2019-02-17T02:45:56.810Z,26.67
2019-02-17T02:48:27.273Z,29.17
2019-02-17T02:50:57.756Z,28.93
2019-02-17T02:53:28.221Z,29.53
2019-02-17T02:55:58.721Z,29.40
2019-02-17T02:58:29.224Z,29.80
2019-02-17T03:00:59.723Z,27.73
2019-02-17T03:03:30.190Z,29.57
2019-02-17T03:06:06.972Z,28.60
2019-02-17T03:08:37.485Z,27.07
2019-02-17T03:11:07.954Z,27.87
2019-02-17T03:13:38.470Z,28.57
2019-02-17T03:16:08.962Z,30.43
2019-02-17T03:18:39.437Z,29.50
2019-02-17T03:21:09.969Z,29.03
2019-02-17T03:23:40.477Z,29.13
2019-02-17T03:26:10.971Z,29.53
2019-02-17T03:28:41.469Z,29.23
2019-02-17T03:31:12.048Z,29.53
2019-02-17T03:33:42.563Z,28.53
2019-02-17T03:36:13.316Z,29.37
2019-02-17T03:38:43.781Z,28.40
2019-02-17T03:41:14.284Z,28.87
2019-02-17T03:43:44.783Z,27.90
2019-02-17T03:46:15.250Z,27.83
2019-02-17T03:48:45.858Z,29.87
2019-02-17T03:51:16.325Z,28.17
2019-02-17T03:53:46.828Z,28.60
2019-02-17T03:56:17.305Z,28.20
2019-02-17T03:58:47.868Z,28.67
2019-02-17T04:01:18.347Z,28.37
2019-02-17T04:03:48.858Z,28.13
2019-02-17T04:06:19.542Z,28.90
2019-02-17T04:08:50.057Z,28.37
2019-02-17T04:11:20.563Z,28.13
2019-02-17T04:13:51.039Z,27.80
2019-02-17T04:16:21.502Z,27.80
2019-02-17T04:18:52.012Z,30.07
2019-02-17T04:21:22.485Z,28.37
2019-02-17T04:23:53.009Z,28.57
2019-02-17T04:26:23.483Z,27.67
2019-02-17T04:28:53.997Z,27.47
2019-02-17T04:31:24.461Z,27.70
2019-02-17T04:33:54.980Z,27.60
2019-02-17T04:36:25.449Z,26.43
2019-02-17T04:38:55.958Z,25.93
2019-02-17T04:41:26.428Z,27.40
2019-02-17T04:43:56.941Z,26.87
2019-02-17T04:46:27.398Z,26.33
2019-02-17T04:48:57.896Z,25.70
2019-02-17T04:51:28.401Z,26.03
2019-02-17T04:53:59.057Z,25.90
2019-02-17T04:56:29.638Z,28.07
2019-02-17T04:59:00.104Z,25.90
2019-02-17T05:01:30.573Z,26.40
2019-02-17T05:04:01.188Z,25.70
2019-02-17T05:06:31.652Z,28.13
2019-02-17T05:09:02.153Z,26.80
2019-02-17T05:11:32.622Z,27.47
2019-02-17T05:14:03.094Z,25.23
2019-02-17T05:16:33.595Z,26.60
2019-02-17T05:19:04.059Z,25.20
2019-02-17T05:21:34.568Z,25.97
2019-02-17T05:24:05.040Z,24.53
2019-02-17T05:26:35.515Z,25.57
2019-02-17T05:29:06.023Z,24.57
2019-02-17T05:31:36.542Z,26.23
2019-02-17T05:34:07.083Z,25.07
2019-02-17T05:36:37.586Z,26.50
2019-02-17T05:39:08.088Z,27.57
2019-02-17T05:41:38.590Z,26.97
2019-02-17T05:44:09.053Z,28.13
2019-02-17T05:46:39.554Z,27.37
2019-02-17T05:49:10.063Z,28.93
2019-02-17T05:51:40.543Z,26.73
2019-02-17T05:54:11.050Z,27.20
2019-02-17T05:56:41.514Z,28.03
2019-02-17T05:59:12.025Z,28.40
2019-02-17T06:01:42.550Z,29.83
2019-02-17T06:04:13.015Z,27.83
2019-02-17T06:06:43.498Z,28.00
2019-02-17T06:09:13.978Z,27.70
2019-02-17T06:11:44.582Z,26.00
2019-02-17T06:14:15.043Z,27.00
2019-02-17T06:16:45.657Z,27.47
2019-02-17T06:19:17.790Z,28.57
2019-02-17T06:21:48.414Z,27.73
2019-02-17T06:24:18.921Z,28.40
2019-02-17T06:26:49.558Z,29.17
2019-02-17T06:29:20.077Z,28.03
2019-02-17T06:31:50.544Z,28.43
2019-02-17T06:34:21.065Z,27.77
2019-02-17T06:36:51.575Z,27.13
2019-02-17T06:39:22.087Z,27.03
2019-02-17T06:41:52.554Z,27.00
2019-02-17T06:44:23.062Z,26.93
2019-02-17T06:46:57.155Z,25.97
2019-02-17T06:49:27.619Z,25.83
2019-02-17T06:51:58.094Z,23.03
2019-02-17T06:54:28.612Z,23.07
2019-02-17T06:57:02.449Z,21.70
2019-02-17T06:59:32.955Z,22.83
2019-02-17T07:02:03.590Z,20.20
2019-02-17T07:04:55.999Z,21.03
2019-02-17T07:07:26.462Z,21.17
2019-02-17T07:09:57.182Z,22.07
2019-02-17T07:12:27.672Z,23.43
2019-02-17T07:14:58.138Z,23.00
2019-02-17T07:17:28.636Z,23.40
2019-02-17T07:19:59.087Z,22.37
2019-02-17T07:22:29.555Z,23.93
2019-02-17T07:25:00.019Z,23.87
2019-02-17T07:27:30.554Z,22.83
2019-02-17T07:30:01.010Z,21.37
2019-02-17T07:32:31.474Z,22.17
2019-02-17T07:35:01.989Z,20.73
2019-02-17T07:37:33.839Z,21.33
2019-02-17T07:40:04.469Z,21.23
2019-02-17T07:42:34.938Z,21.43
2019-02-17T07:45:05.779Z,21.83
2019-02-17T07:47:36.233Z,22.53
2019-02-17T07:50:07.454Z,21.83
2019-02-17T07:52:37.922Z,21.83
2019-02-17T07:55:09.013Z,22.20
2019-02-17T07:57:39.469Z,22.83
2019-02-17T08:00:10.275Z,23.83
2019-02-17T08:02:40.782Z,25.27
2019-02-17T08:05:11.392Z,20.30
2019-02-17T08:07:41.862Z,20.87
2019-02-17T08:10:12.474Z,21.57
2019-02-17T08:12:42.955Z,20.03
2019-02-17T08:15:13.668Z,20.63
2019-02-17T08:17:44.121Z,19.17
2019-02-17T08:20:14.634Z,19.73
2019-02-17T08:22:45.155Z,18.27
2019-02-17T08:25:21.699Z,18.03
2019-02-17T08:27:47.999Z,18.60
2019-02-17T08:30:18.625Z,19.17
2019-02-17T08:32:49.228Z,18.43
2019-02-17T08:35:19.637Z,18.80
2019-02-17T08:37:50.247Z,18.73
2019-02-17T08:40:20.733Z,17.83
2019-02-17T08:42:51.197Z,17.87
2019-02-17T08:45:21.697Z,17.30
2019-02-17T08:47:52.159Z,18.63
2019-02-17T08:50:22.631Z,16.53
2019-02-17T08:52:53.152Z,16.93
2019-02-17T08:55:23.623Z,17.63
2019-02-17T08:57:54.146Z,17.27
2019-02-17T09:00:24.614Z,18.57
2019-02-17T09:02:55.111Z,16.83
2019-02-17T09:05:25.592Z,17.70
2019-02-17T09:07:56.067Z,17.63
2019-02-17T09:10:26.542Z,16.73
2019-02-17T09:12:57.059Z,17.20
2019-02-17T09:15:27.581Z,17.70
2019-02-17T09:17:58.059Z,17.10
2019-02-17T09:20:28.579Z,17.47
2019-02-17T09:22:59.082Z,18.17
2019-02-17T09:25:29.593Z,15.73
2019-02-17T09:28:00.094Z,16.00
2019-02-17T09:30:30.603Z,16.80
2019-02-17T09:33:01.113Z,15.27
2019-02-17T09:35:31.633Z,15.97
2019-02-17T09:38:02.218Z,15.93
2019-02-17T09:40:32.731Z,15.90
2019-02-17T09:43:03.338Z,16.63
2019-02-17T09:45:33.823Z,17.00
2019-02-17T09:48:04.386Z,17.03
2019-02-17T09:50:34.896Z,16.57
2019-02-17T09:53:05.358Z,16.33
2019-02-17T09:55:35.875Z,17.00
2019-02-17T09:58:06.447Z,15.93
2019-02-17T10:00:36.953Z,15.33
2019-02-17T10:03:07.461Z,15.90
2019-02-17T10:05:37.941Z,14.53
2019-02-17T10:08:08.424Z,14.93
2019-02-17T10:10:38.910Z,15.80
2019-02-17T10:13:09.419Z,14.50
2019-02-17T10:15:39.945Z,13.93
2019-02-17T10:18:10.458Z,14.23
2019-02-17T10:20:40.931Z,15.40
2019-02-17T10:23:11.415Z,13.53
2019-02-17T10:25:41.942Z,14.17
2019-02-17T10:28:12.407Z,14.20
2019-02-17T10:30:42.991Z,13.70
2019-02-17T10:33:13.459Z,13.73
2019-02-17T10:35:43.978Z,14.03
2019-02-17T10:38:14.881Z,13.27
2019-02-17T10:40:45.388Z,14.30
2019-02-17T10:43:15.908Z,13.23
2019-02-17T10:45:46.395Z,14.87
2019-02-17T10:48:16.926Z,14.93
2019-02-17T10:50:47.443Z,14.63
2019-02-17T10:53:17.961Z,13.73
2019-02-17T10:55:48.426Z,13.07
2019-02-17T10:58:18.896Z,12.73
2019-02-17T11:00:49.426Z,14.03
2019-02-17T11:03:19.941Z,13.03
2019-02-17T11:05:50.513Z,13.63
2019-02-17T11:08:21.012Z,13.87
2019-02-17T11:10:51.483Z,13.90
2019-02-17T11:13:21.998Z,13.63
2019-02-17T11:15:52.455Z,13.97
2019-02-17T11:18:22.971Z,14.50
2019-02-17T11:20:53.513Z,13.90
2019-02-17T11:23:23.971Z,12.57
2019-02-17T11:25:54.442Z,12.97
2019-02-17T11:28:24.954Z,11.93
2019-02-17T11:30:55.548Z,11.47
2019-02-17T11:33:26.026Z,12.03
2019-02-17T11:35:56.646Z,11.30
2019-02-17T11:38:27.157Z,9.90
2019-02-17T11:40:57.623Z,11.17
2019-02-17T11:43:28.090Z,10.70
2019-02-17T11:45:58.555Z,10.07
2019-02-17T11:48:29.182Z,10.77
2019-02-17T11:50:59.763Z,10.60
2019-02-17T11:53:30.300Z,10.80
2019-02-17T11:56:00.816Z,9.70
2019-02-17T11:58:31.537Z,9.40
2019-02-17T12:01:02.049Z,9.90
2019-02-17T12:03:32.650Z,9.33
2019-02-17T12:06:03.106Z,9.00
2019-02-17T12:08:33.601Z,8.47
2019-02-17T12:11:04.100Z,7.77
2019-02-17T12:13:34.609Z,8.33
2019-02-17T12:16:05.117Z,8.10
2019-02-17T12:18:35.617Z,7.77
2019-02-17T12:21:17.843Z,7.63
2019-02-17T12:24:07.204Z,7.83
2019-02-17T12:26:56.504Z,7.30
2019-02-17T12:29:34.097Z,6.83
2019-02-17T12:32:04.649Z,7.30
2019-02-17T12:34:35.163Z,6.87
2019-02-17T12:37:05.672Z,8.20
2019-02-17T12:39:36.126Z,7.13
2019-02-17T12:42:06.625Z,8.10
2019-02-17T12:44:37.139Z,7.27
2019-02-17T12:47:07.605Z,7.00
2019-02-17T12:49:38.109Z,7.60
2019-02-17T12:52:08.560Z,6.70
2019-02-17T12:54:39.222Z,6.60
2019-02-17T12:57:09.689Z,6.80
2019-02-17T12:59:41.214Z,7.37
2019-02-17T13:02:11.773Z,6.60
2019-02-17T13:04:42.271Z,6.40
2019-02-17T13:07:12.732Z,7.30
2019-02-17T13:09:43.253Z,7.23
2019-02-17T13:12:13.717Z,7.37
2019-02-17T13:14:44.182Z,6.70
2019-02-17T13:17:14.771Z,6.80
2019-02-17T13:19:45.231Z,6.27
2019-02-17T13:22:15.685Z,6.50
2019-02-17T13:24:46.145Z,6.27
2019-02-17T13:27:16.593Z,6.57
2019-02-17T13:29:47.097Z,6.97
2019-02-17T13:32:17.552Z,6.73
2019-02-17T13:34:48.122Z,10.83
2019-02-17T13:37:18.636Z,7.97
2019-02-17T13:39:49.113Z,7.23
2019-02-17T13:42:19.625Z,6.77
2019-02-17T13:44:50.127Z,7.20
2019-02-17T13:47:20.633Z,7.70
2019-02-17T13:49:51.085Z,7.10
2019-02-17T13:52:21.574Z,6.03
2019-02-17T13:54:52.091Z,6.67
2019-02-17T13:57:22.612Z,5.90
2019-02-17T13:59:53.127Z,6.67
2019-02-17T14:02:23.599Z,8.10
2019-02-17T14:04:54.117Z,7.13
2019-02-17T14:07:24.592Z,9.47
2019-02-17T14:09:55.049Z,9.00
2019-02-17T14:12:25.573Z,7.97
2019-02-17T14:14:56.037Z,8.37
2019-02-17T14:17:26.487Z,7.93
2019-02-17T14:19:56.994Z,8.43
2019-02-17T14:22:27.451Z,7.77
2019-02-17T14:24:57.956Z,8.60
2019-02-17T14:27:28.432Z,9.10
2019-02-17T14:29:58.922Z,8.43
2019-02-17T14:32:29.375Z,10.27
2019-02-17T14:34:59.835Z,8.47
2019-02-17T14:37:30.348Z,8.93
2019-02-17T14:40:00.872Z,10.27
2019-02-17T14:42:31.519Z,10.50
2019-02-17T14:45:01.991Z,11.20
2019-02-17T14:47:32.458Z,14.00
2019-02-17T14:50:02.959Z,12.33
2019-02-17T14:52:33.527Z,13.73
2019-02-17T14:55:04.163Z,12.90
2019-02-17T14:57:34.637Z,14.77
2019-02-17T15:00:05.796Z,14.40
2019-02-17T15:02:36.312Z,15.00
2019-02-17T15:05:06.954Z,14.27
2019-02-17T15:07:37.573Z,15.83
2019-02-17T15:10:08.930Z,16.50
2019-02-17T15:12:39.456Z,15.57
2019-02-17T15:15:10.268Z,15.93
2019-02-17T15:17:40.739Z,17.00
2019-02-17T15:20:12.526Z,16.33
2019-02-17T15:22:43.038Z,15.63
2019-02-17T15:25:13.622Z,14.77
2019-02-17T15:27:44.143Z,15.23
2019-02-17T15:30:15.083Z,15.17
2019-02-17T15:32:45.604Z,15.03
2019-02-17T15:35:16.072Z,14.53
2019-02-17T15:37:46.653Z,14.67
2019-02-17T15:40:17.258Z,15.13
2019-02-17T15:42:47.791Z,14.93
2019-02-17T15:45:18.404Z,14.63
2019-02-17T15:47:48.913Z,15.73
2019-02-17T15:50:19.410Z,15.43
2019-02-17T15:52:49.903Z,15.40
2019-02-17T15:55:20.424Z,14.87
2019-02-17T15:57:50.940Z,15.77
2019-02-17T16:00:21.533Z,14.80
2019-02-17T16:02:52.045Z,14.43
2019-02-17T16:05:22.513Z,15.20
2019-02-17T16:07:53.097Z,15.90
2019-02-17T16:10:23.614Z,15.83
2019-02-17T16:12:54.127Z,16.00
2019-02-17T16:15:24.769Z,16.47
2019-02-17T16:17:55.293Z,19.93
2019-02-17T16:20:25.758Z,18.13
2019-02-17T16:22:56.231Z,17.97
2019-02-17T16:25:26.738Z,17.27
2019-02-17T16:27:57.211Z,18.63
2019-02-17T16:30:27.717Z,20.67
2019-02-17T16:32:58.171Z,21.63
2019-02-17T16:35:28.686Z,24.77
2019-02-17T16:37:59.212Z,27.87
2019-02-17T16:40:29.693Z,27.37
2019-02-17T16:43:00.220Z,27.10
2019-02-17T16:45:30.848Z,28.97
2019-02-17T16:48:01.321Z,28.40
2019-02-17T16:50:31.967Z,26.57
2019-02-17T16:53:02.443Z,26.10
2019-02-17T16:55:33.070Z,27.13
2019-02-17T16:58:03.585Z,26.50
2019-02-17T17:00:34.129Z,27.20
2019-02-17T17:03:05.103Z,28.27
2019-02-17T17:05:35.579Z,27.10
2019-02-17T17:08:06.196Z,30.43
2019-02-17T17:10:36.661Z,33.33
2019-02-17T17:13:07.183Z,33.83
2019-02-17T17:15:37.637Z,41.27
2019-02-17T17:18:08.209Z,36.00
2019-02-17T17:20:38.833Z,35.73
2019-02-17T17:23:09.339Z,33.67
2019-02-17T17:25:40.064Z,34.20
2019-02-17T17:28:10.569Z,35.23
2019-02-17T17:30:41.133Z,35.20
2019-02-17T17:33:11.653Z,36.00
2019-02-17T17:35:42.124Z,36.93
2019-02-17T17:38:12.586Z,33.80
2019-02-17T17:40:43.108Z,35.70
2019-02-17T17:43:13.578Z,33.97
2019-02-17T17:45:44.043Z,33.53
2019-02-17T17:48:14.542Z,29.77
2019-02-17T17:50:45.078Z,28.33
2019-02-17T17:53:15.543Z,29.57
2019-02-17T17:55:46.057Z,30.03
2019-02-17T17:58:16.527Z,29.03
2019-02-17T18:00:47.081Z,28.40
2019-02-17T18:03:17.542Z,31.33
2019-02-17T18:05:48.058Z,30.23
2019-02-17T18:08:18.641Z,30.40
2019-02-17T18:10:49.106Z,30.87
2019-02-17T18:13:21.881Z,29.57
2019-02-17T18:15:51.822Z,29.53
2019-02-17T18:18:22.291Z,29.40
2019-02-17T18:20:52.766Z,29.83
2019-02-17T18:23:23.234Z,32.37
2019-02-17T18:25:53.729Z,36.20
2019-02-17T18:28:24.242Z,32.73
2019-02-17T18:30:54.758Z,33.60
2019-02-17T18:33:25.225Z,35.77
2019-02-17T18:35:55.755Z,34.87
2019-02-17T18:38:26.213Z,34.40
2019-02-17T18:40:56.754Z,34.00
2019-02-17T18:43:27.221Z,34.33
2019-02-17T18:45:57.690Z,33.47
2019-02-17T18:48:28.202Z,35.27
2019-02-17T18:50:59.443Z,32.93
2019-02-17T18:53:30.069Z,35.90
2019-02-17T18:56:00.527Z,42.77
2019-02-17T18:58:31.080Z,40.63
2019-02-17T19:01:01.611Z,44.80
2019-02-17T19:03:32.135Z,42.20
2019-02-17T19:06:02.648Z,44.13
2019-02-17T19:08:33.159Z,48.97
2019-02-17T19:11:03.670Z,49.20
2019-02-17T19:13:34.129Z,46.07
2019-02-17T19:16:04.742Z,47.73
2019-02-17T19:18:35.274Z,43.67
2019-02-17T19:21:05.863Z,39.63
2019-02-17T19:23:36.329Z,38.53
2019-02-17T19:26:06.804Z,34.63
2019-02-17T19:28:37.323Z,34.77
2019-02-17T19:31:07.786Z,32.80
2019-02-17T19:33:38.300Z,33.27
2019-02-17T19:36:08.772Z,34.17
2019-02-17T19:38:39.282Z,29.83
2019-02-17T19:41:09.754Z,29.90
2019-02-17T19:43:40.264Z,30.33
2019-02-17T19:46:10.781Z,31.43
2019-02-17T19:48:41.294Z,34.57
2019-02-17T19:51:11.753Z,35.17
2019-02-17T19:53:42.267Z,34.57
2019-02-17T19:56:12.838Z,36.90
2019-02-17T19:58:43.321Z,36.80
2019-02-17T20:01:13.785Z,37.57
2019-02-17T20:03:54.122Z,39.17
2019-02-17T20:06:25.886Z,37.57
2019-02-17T20:08:56.493Z,35.33
2019-02-17T20:11:27.046Z,34.40
2019-02-17T20:13:57.509Z,33.73
2019-02-17T20:16:28.056Z,33.50
2019-02-17T20:18:58.582Z,32.90
2019-02-17T20:21:29.094Z,34.43
2019-02-17T20:23:59.613Z,32.23
2019-02-17T20:26:30.186Z,30.17
2019-02-17T20:29:00.663Z,29.10
2019-02-17T20:31:31.269Z,29.77
2019-02-17T20:34:01.792Z,34.93
2019-02-17T20:36:32.261Z,28.40
2019-02-17T20:39:02.867Z,28.57
2019-02-17T20:41:33.453Z,28.97
2019-02-17T20:44:03.919Z,30.67
2019-02-17T20:46:34.428Z,37.33
2019-02-17T20:49:04.915Z,26.33
2019-02-17T20:51:35.420Z,33.87
2019-02-17T20:54:05.981Z,35.00
2019-02-17T20:56:36.554Z,35.20
2019-02-17T20:59:07.080Z,33.33
2019-02-17T21:01:37.695Z,28.10
2019-02-17T21:04:08.215Z,29.43
2019-02-17T21:06:38.835Z,29.13
2019-02-17T21:09:09.332Z,30.63
2019-02-17T21:11:39.792Z,34.00
2019-02-17T21:14:10.327Z,35.30
2019-02-17T21:16:40.838Z,35.07
2019-02-17T21:19:11.306Z,36.13
2019-02-17T21:21:41.778Z,35.97
2019-02-17T21:24:12.301Z,35.80
2019-02-17T21:26:42.761Z,36.43
2019-02-17T21:29:13.274Z,35.73
2019-02-17T21:31:43.834Z,38.23
2019-02-17T21:34:14.370Z,39.70
2019-02-17T21:36:44.817Z,37.50
2019-02-17T21:39:15.265Z,37.40
2019-02-17T21:41:45.786Z,38.10
2019-02-17T21:44:16.772Z,36.93
2019-02-17T21:46:47.188Z,39.77
2019-02-17T21:49:17.709Z,38.17
2019-02-17T21:51:48.168Z,38.33
2019-02-17T21:54:18.621Z,37.93
2019-02-17T21:56:49.148Z,38.50
2019-02-17T21:59:19.657Z,36.73
2019-02-17T22:01:50.122Z,37.87
2019-02-17T22:04:20.646Z,36.60
2019-02-17T22:06:51.173Z,36.63
2019-02-17T22:09:21.641Z,35.73
2019-02-17T22:11:52.145Z,36.73
2019-02-17T22:14:22.598Z,36.13
2019-02-17T22:16:53.097Z,34.77
2019-02-17T22:19:23.564Z,35.50
2019-02-17T22:21:54.076Z,34.97
2019-02-17T22:24:24.540Z,34.33
2019-02-17T22:26:55.053Z,35.17
2019-02-17T22:29:25.605Z,35.83
2019-02-17T22:31:56.074Z,36.20
2019-02-17T22:34:26.588Z,37.07
2019-02-17T22:36:57.042Z,33.93
2019-02-17T22:39:27.564Z,34.77
2019-02-17T22:41:58.074Z,35.47
2019-02-17T22:44:28.581Z,35.47
2019-02-17T22:46:59.054Z,34.23
2019-02-17T22:49:29.513Z,34.73
2019-02-17T22:52:00.370Z,33.57
2019-02-17T22:54:30.825Z,37.27
2019-02-17T22:57:01.341Z,37.80
2019-02-17T22:59:31.818Z,37.83
2019-02-17T23:02:02.410Z,36.40
2019-02-17T23:04:32.977Z,38.03
2019-02-17T23:07:03.576Z,37.97
2019-02-17T23:09:34.186Z,38.17
2019-02-17T23:12:04.829Z,37.53
2019-02-17T23:14:35.345Z,36.73
2019-02-17T23:17:05.858Z,39.23
2019-02-17T23:19:36.347Z,36.30
2019-02-17T23:22:06.820Z,36.00
2019-02-17T23:24:37.513Z,36.97
2019-02-17T23:27:08.124Z,37.43
2019-02-17T23:29:38.576Z,37.60
2019-02-17T23:32:09.072Z,37.70
2019-02-17T23:34:39.532Z,37.57
2019-02-17T23:37:10.045Z,38.63
2019-02-17T23:39:40.511Z,38.30
2019-02-17T23:42:11.035Z,37.37
2019-02-17T23:44:41.490Z,39.33
2019-02-17T23:47:11.997Z,37.37
2019-02-17T23:49:42.470Z,39.33
2019-02-17T23:52:13.078Z,40.03
2019-02-17T23:54:43.542Z,38.73
2019-02-17T23:57:14.045Z,36.03
2019-02-17T23:59:44.559Z,37.30
